This is the latest recevied weather packets stored in our database for station/object WM1X. If no packets are shown the sender has not sent any weather packets the latest 10 day(s).
| Time | Temp. | Humidity | Pressure | Rain* | Wind** | Luminosity | Snow |
|---|---|---|---|---|---|---|---|
| 1777629304 | 4.44° C | 92% | 1009.5 hPa | 0 mm | - | - | - |
| 1777627504 | 4.44° C | 92% | 1009.4 hPa | 0 mm | - | - | - |
| 1777626904 | 4.44° C | 92% | 1009.4 hPa | 0 mm | - | - | - |
| 1777615504 | 6.11° C | 91% | 1008.6 hPa | 0 mm | - | - | - |
| 1777612504 | 6.67° C | 93% | 1008.6 hPa | 0 mm | - | - | - |
| 1777607704 | 8.33° C | 94% | 1007.9 hPa | 0 mm | - | - | - |
| 1777604104 | 8.89° C | 94% | 1007.8 hPa | 0 mm | - | - | - |
| 1777602904 | 9.44° C | 94% | 1007.8 hPa | 0 mm | - | - | - |
| 1777601704 | 9.44° C | 92% | 1007.9 hPa | 0 mm | - | - | - |
| 1777599304 | 9.44° C | 95% | 1007.7 hPa | 0.25 mm | - | - | - |
| 1777588504 | 9.44° C | 98% | 1006.4 hPa | 0 mm | - | - | - |
| 1777574704 | 8.89° C | 97% | 1006.5 hPa | 0 mm | - | - | - |
| 1777574104 | 8.33° C | 97% | 1006.5 hPa | 0 mm | - | - | - |
| 1777572904 | 8.33° C | 97% | 1006.6 hPa | 0 mm | - | - | - |
| 1777569904 | 8.33° C | 98% | 1007.3 hPa | 0 mm | - | - | - |
| 1777568104 | 7.78° C | 98% | 1007.5 hPa | 0.25 mm | - | - | - |
| 1777564505 | 7.78° C | 99% | 1007.7 hPa | 0.76 mm | - | - | - |
| 1777562704 | 6.67° C | 99% | 1007.8 hPa | 0.51 mm | - | - | - |
| 1777557904 | 6.67° C | 99% | 1008.1 hPa | 0.25 mm | - | - | - |
| 1777557304 | 6.67° C | 99% | 1008 hPa | 0.25 mm | - | - | - |
| 1777555504 | 6.67° C | 100% | 1008 hPa | 0.76 mm | - | - | - |
| 1777551903 | 6.11° C | 100% | 1008.3 hPa | 1.02 mm | - | - | - |
| 1777550703 | 6.11° C | 100% | 1008.2 hPa | 1.27 mm | - | - | - |
| 1777548305 | 5.56° C | 100% | 1008.3 hPa | 1.02 mm | - | - | - |
| 1777544104 | 5.56° C | 100% | 1008.4 hPa | 0.76 mm | - | - | - |
* Rain latest hour (hover to see other rain measurements)
** Current wind speed in m/s (hover to see current wind gust speed)